Time;durP1;ratioP1;P1;durP2;ratioP2;P2;SDS_P1;SDS_P2;PMS_P1;PMS_P2;Temp;Humidity;BMP_temperature;BMP_pressure;BME280_temperature;BME280_humidity;BME280_pressure;Samples;Min_cycle;Max_cycle;Signal;HPM_P1;HPM_P2
2022/12/04 00:02:25;;;;;;;;;;;9.30;99.90;;;;;;5116622;28;20482;-67
2022/12/04 00:04:51;;;;;;;;;;;9.30;99.90;;;;;;5097060;28;19923;-68
2022/12/04 00:07:16;;;;;;;;;;;9.40;99.90;;;;;;5110207;28;19908;-67
2022/12/04 00:09:42;;;;;;;;;;;9.40;99.90;;;;;;5115792;28;19911;-67
2022/12/04 00:12:08;;;;;;;;;;;9.50;99.90;;;;;;5117526;27;19943;-68
2022/12/04 00:14:33;;;;;;;;;;;9.50;99.90;;;;;;5106770;28;19916;-66
2022/12/04 00:16:59;;;;;;;;;;;9.60;99.90;;;;;;5115528;28;19943;-68
2022/12/04 00:19:25;;;;;;;;;;;9.60;99.90;;;;;;5115707;28;19998;-67
2022/12/04 00:21:50;;;;;;;;;;;9.60;99.90;;;;;;5114588;28;19916;-67
2022/12/04 00:24:16;;;;;;;;;;;9.60;99.90;;;;;;5113679;28;19912;-67
2022/12/04 00:26:42;;;;;;;;;;;9.60;99.90;;;;;;5114362;28;19912;-67
2022/12/04 00:29:07;;;;;;;;;;;9.60;99.90;;;;;;5115531;28;19922;-67
2022/12/04 00:31:33;;;;;;;;;;;9.70;99.90;;;;;;5113704;28;19912;-68
2022/12/04 00:33:59;;;;;;;;;;;9.70;99.90;;;;;;5113450;28;19918;-67
2022/12/04 00:36:26;;;;;;;;;;;9.70;99.90;;;;;;5113339;28;20057;-67
2022/12/04 00:38:51;;;;;;;;;;;9.70;99.90;;;;;;5115544;27;19919;-67
2022/12/04 00:41:18;;;;;;;;;;;9.80;99.90;;;;;;5104450;27;19920;-67
2022/12/04 00:43:47;;;;;;;;;;;9.80;99.90;;;;;;5102379;27;19918;-67
2022/12/04 00:46:13;;;;;;;;;;;9.70;99.90;;;;;;5100621;27;20008;-68
2022/12/04 00:48:39;;;;;;;;;;;9.70;99.90;;;;;;5104619;27;20381;-68
2022/12/04 00:51:09;;;;;;;;;;;9.80;99.90;;;;;;5112756;28;19907;-68
2022/12/04 00:53:35;;;;;;;;;;;9.80;99.90;;;;;;5113043;28;20395;-68
2022/12/04 00:56:05;;;;;;;;;;;9.90;99.90;;;;;;5111414;28;19942;-68
2022/12/04 00:58:31;;;;;;;;;;;10.00;99.90;;;;;;5111684;28;19908;-67
2022/12/04 01:01:03;;;;;;;;;;;10.10;99.90;;;;;;5112504;28;19908;-68
2022/12/04 01:03:29;;;;;;;;;;;10.10;99.90;;;;;;5112335;28;19908;-68
2022/12/04 01:05:55;;;;;;;;;;;10.10;99.90;;;;;;5110320;28;19915;-67
2022/12/04 01:08:20;;;;;;;;;;;10.10;99.90;;;;;;5106995;27;19922;-68
2022/12/04 01:10:46;;;;;;;;;;;10.20;99.90;;;;;;5103982;28;19908;-68
2022/12/04 01:13:11;;;;;;;;;;;10.10;99.90;;;;;;5094318;28;19927;-68
2022/12/04 01:15:38;;;;;;;;;;;10.10;99.90;;;;;;5091997;28;19912;-68
2022/12/04 01:18:03;;;;;;;;;;;10.10;99.90;;;;;;5091807;28;20128;-67
2022/12/04 01:20:29;;;;;;;;;;;10.00;99.90;;;;;;5100915;28;20054;-67
2022/12/04 01:22:55;;;;;;;;;;;10.00;99.90;;;;;;5101363;28;19916;-68
2022/12/04 01:25:20;;;;;;;;;;;9.90;99.90;;;;;;5101225;28;19959;-68
2022/12/04 01:27:46;;;;;;;;;;;9.90;99.90;;;;;;5100878;27;19916;-68
2022/12/04 01:30:12;;;;;;;;;;;9.90;99.90;;;;;;5099281;28;20397;-67
2022/12/04 01:32:37;;;;;;;;;;;9.80;99.90;;;;;;5098877;28;19920;-68
2022/12/04 01:35:03;;;;;;;;;;;9.80;99.90;;;;;;5100460;28;19972;-68
2022/12/04 01:37:30;;;;;;;;;;;9.60;99.90;;;;;;5115204;27;19911;-68
2022/12/04 01:39:55;;;;;;;;;;;9.50;99.90;;;;;;5096927;27;19919;-68
2022/12/04 01:42:21;;;;;;;;;;;9.40;99.90;;;;;;5100729;27;19911;-67
2022/12/04 01:45:05;;;;;;;;;;;9.30;99.90;;;;;;5099638;28;19920;-68
2022/12/04 01:47:31;;;;;;;;;;;9.00;99.90;;;;;;5111806;27;20312;-67
2022/12/04 01:49:57;;;;;;;;;;;8.90;99.90;;;;;;5101607;28;19945;-68
2022/12/04 01:52:24;;;;;;;;;;;8.70;99.90;;;;;;5101726;28;19919;-68
2022/12/04 01:54:53;;;;;;;;;;;8.60;99.90;;;;;;5101487;28;20276;-67
2022/12/04 01:57:20;;;;;;;;;;;8.60;99.90;;;;;;5100604;28;20398;-67
2022/12/04 01:59:50;;;;;;;;;;;8.60;99.90;;;;;;5101552;28;20666;-67
2022/12/04 02:02:18;;;;;;;;;;;8.60;99.90;;;;;;5104179;28;20386;-67
2022/12/04 02:04:44;;;;;;;;;;;8.60;99.90;;;;;;5102706;28;19955;-67
2022/12/04 02:07:10;;;;;;;;;;;8.50;99.90;;;;;;5100845;28;20413;-65
2022/12/04 02:09:38;;;;;;;;;;;8.40;99.90;;;;;;5108131;28;19923;-67
2022/12/04 02:12:06;;;;;;;;;;;8.40;99.90;;;;;;5112204;28;19912;-66
2022/12/04 02:14:40;;;;;;;;;;;8.30;99.90;;;;;;5119511;28;20361;-66
2022/12/04 02:17:18;;;;;;;;;;;8.30;99.90;;;;;;5119875;28;19947;-67
2022/12/04 02:20:03;;;;;;;;;;;8.30;99.90;;;;;;5117907;28;19908;-65
2022/12/04 02:22:39;;;;;;;;;;;8.30;99.90;;;;;;5118425;28;19908;-67
2022/12/04 02:25:28;;;;;;;;;;;8.30;99.90;;;;;;5119119;28;19907;-67
2022/12/04 02:28:12;;;;;;;;;;;8.30;99.90;;;;;;5119542;28;19934;-67
2022/12/04 02:30:39;;;;;;;;;;;8.30;99.90;;;;;;5114089;28;19973;-67
2022/12/04 02:33:05;;;;;;;;;;;8.30;99.90;;;;;;5098034;28;19915;-67
2022/12/04 02:35:34;;;;;;;;;;;8.30;99.90;;;;;;5098131;28;20314;-66
2022/12/04 02:38:08;;;;;;;;;;;8.30;99.90;;;;;;5117353;27;19934;-67
2022/12/04 02:40:46;;;;;;;;;;;8.30;99.90;;;;;;5114365;28;20386;-66
2022/12/04 02:43:16;;;;;;;;;;;8.40;99.90;;;;;;5115341;28;19919;-67
2022/12/04 02:45:44;;;;;;;;;;;8.40;99.90;;;;;;5113712;28;19998;-67
2022/12/04 02:48:12;;;;;;;;;;;8.50;99.90;;;;;;5116277;28;20310;-67
2022/12/04 02:50:39;;;;;;;;;;;8.60;99.90;;;;;;5117220;28;19923;-67
2022/12/04 02:53:12;;;;;;;;;;;8.70;99.90;;;;;;5118109;27;19965;-67
2022/12/04 02:56:09;;;;;;;;;;;8.70;99.90;;;;;;5115216;27;19983;-67
2022/12/04 02:58:38;;;;;;;;;;;8.70;99.90;;;;;;5099436;28;19979;-67
2022/12/04 03:01:18;;;;;;;;;;;8.80;99.90;;;;;;5099478;28;20334;-67
2022/12/04 03:03:48;;;;;;;;;;;8.80;99.90;;;;;;5118618;28;19908;-67
2022/12/04 03:06:17;;;;;;;;;;;8.60;99.90;;;;;;5115659;28;19912;-66
2022/12/04 03:08:46;;;;;;;;;;;8.70;99.90;;;;;;5114861;27;20270;-67
2022/12/04 03:11:12;;;;;;;;;;;8.60;99.90;;;;;;5108374;28;20406;-66
2022/12/04 03:13:38;;;;;;;;;;;8.60;99.90;;;;;;5117204;28;19918;-66
2022/12/04 03:16:03;;;;;;;;;;;8.60;99.90;;;;;;5115195;28;19912;-67
2022/12/04 03:18:35;;;;;;;;;;;8.70;99.90;;;;;;5118086;28;19908;-67
2022/12/04 03:21:09;;;;;;;;;;;8.70;99.90;;;;;;5116968;28;19912;-67
2022/12/04 03:23:38;;;;;;;;;;;8.70;99.90;;;;;;5116363;27;19919;-67
2022/12/04 03:26:22;;;;;;;;;;;8.70;99.90;;;;;;5114884;27;19919;-67
2022/12/04 03:28:53;;;;;;;;;;;8.70;99.90;;;;;;5116585;28;20023;-67
2022/12/04 03:31:22;;;;;;;;;;;8.80;99.90;;;;;;5109220;27;19912;-67
2022/12/04 03:33:49;;;;;;;;;;;8.80;99.90;;;;;;5117035;28;20324;-67
2022/12/04 03:36:20;;;;;;;;;;;8.80;99.90;;;;;;5112881;28;19915;-66
2022/12/04 03:38:52;;;;;;;;;;;8.80;99.90;;;;;;5116617;28;19999;-67
2022/12/04 03:41:23;;;;;;;;;;;8.80;99.90;;;;;;5096836;28;19931;-67
2022/12/04 03:43:52;;;;;;;;;;;8.80;99.90;;;;;;5099407;27;19922;-67
2022/12/04 03:46:34;;;;;;;;;;;8.80;99.90;;;;;;5095394;28;20352;-68
2022/12/04 03:49:17;;;;;;;;;;;8.80;99.90;;;;;;5115854;28;19916;-67
2022/12/04 03:51:52;;;;;;;;;;;8.70;99.90;;;;;;5111717;27;20298;-67
2022/12/04 03:54:24;;;;;;;;;;;8.70;99.90;;;;;;5112621;28;19919;-68
2022/12/04 03:56:59;;;;;;;;;;;8.70;99.90;;;;;;5116233;28;19920;-67
2022/12/04 03:59:27;;;;;;;;;;;8.80;99.90;;;;;;5113363;28;19923;-67
2022/12/04 04:01:54;;;;;;;;;;;8.80;99.90;;;;;;5115136;28;20295;-67
2022/12/04 04:04:25;;;;;;;;;;;8.80;99.90;;;;;;5108138;28;19915;-67
2022/12/04 04:06:56;;;;;;;;;;;8.80;99.90;;;;;;5105366;27;19927;-68
2022/12/04 04:09:28;;;;;;;;;;;8.80;99.90;;;;;;5117572;27;19916;-67
2022/12/04 04:12:04;;;;;;;;;;;8.90;99.90;;;;;;5104918;27;19912;-67
2022/12/04 04:25:41;;;;;;;;;;;9.00;99.90;;;;;;5096540;28;19960;-67
2022/12/04 04:28:25;;;;;;;;;;;9.10;99.90;;;;;;5095682;28;20267;-67
2022/12/04 04:30:51;;;;;;;;;;;9.10;99.90;;;;;;5104170;28;19930;-68
2022/12/04 04:33:17;;;;;;;;;;;9.10;99.90;;;;;;5115562;28;19912;-68
2022/12/04 04:35:56;;;;;;;;;;;9.10;99.90;;;;;;5119033;27;19911;-67
2022/12/04 04:38:22;;;;;;;;;;;9.20;99.90;;;;;;5107860;28;20382;-68
2022/12/04 04:41:09;;;;;;;;;;;9.20;99.90;;;;;;5116543;28;19912;-68
2022/12/04 04:43:38;;;;;;;;;;;9.20;99.90;;;;;;5110087;28;19985;-67
2022/12/04 04:46:12;;;;;;;;;;;9.20;99.90;;;;;;5080976;28;19915;-68
2022/12/04 04:48:46;;;;;;;;;;;9.20;99.90;;;;;;5104827;27;19989;-68
2022/12/04 04:51:20;;;;;;;;;;;9.20;99.90;;;;;;5106318;27;19922;-67
2022/12/04 04:53:51;;;;;;;;;;;9.20;99.90;;;;;;5104835;27;19978;-67
2022/12/04 04:56:18;;;;;;;;;;;9.20;99.90;;;;;;5119653;27;20272;-67
2022/12/04 04:58:44;;;;;;;;;;;9.20;99.90;;;;;;5080499;28;19916;-67
2022/12/04 05:01:12;;;;;;;;;;;9.30;99.90;;;;;;5103726;28;20236;-67
2022/12/04 05:03:40;;;;;;;;;;;9.30;99.90;;;;;;5085324;28;20088;-68
2022/12/04 05:06:06;;;;;;;;;;;9.30;99.90;;;;;;5102087;27;19982;-68
2022/12/04 05:08:32;;;;;;;;;;;9.20;99.90;;;;;;5102456;28;20298;-67
2022/12/04 05:10:58;;;;;;;;;;;9.20;99.90;;;;;;5103324;27;19918;-67
2022/12/04 05:13:24;;;;;;;;;;;9.20;99.90;;;;;;5102825;28;20419;-67
2022/12/04 05:15:57;;;;;;;;;;;9.20;99.90;;;;;;5103860;27;19916;-67
2022/12/04 05:18:22;;;;;;;;;;;9.20;99.90;;;;;;5112299;28;19930;-67
2022/12/04 05:20:48;;;;;;;;;;;9.20;99.90;;;;;;5114726;28;20284;-67
2022/12/04 05:23:13;;;;;;;;;;;9.40;99.90;;;;;;5114250;28;19976;-67
2022/12/04 05:25:39;;;;;;;;;;;9.50;99.90;;;;;;5114575;28;19915;-67
2022/12/04 05:28:05;;;;;;;;;;;9.50;99.90;;;;;;5097724;28;19991;-67
2022/12/04 05:30:31;;;;;;;;;;;9.50;99.90;;;;;;5094982;28;20387;-67
2022/12/04 05:32:57;;;;;;;;;;;9.60;99.90;;;;;;5104230;28;19908;-68
2022/12/04 05:35:23;;;;;;;;;;;9.60;99.90;;;;;;5111691;28;19912;-68
2022/12/04 05:37:49;;;;;;;;;;;9.60;99.90;;;;;;5096942;28;20648;-68
2022/12/04 05:40:15;;;;;;;;;;;9.60;99.90;;;;;;5126632;27;20010;-68
2022/12/04 05:42:40;;;;;;;;;;;9.60;99.90;;;;;;5112688;28;19951;-68
2022/12/04 05:45:06;;;;;;;;;;;9.60;99.90;;;;;;5096409;28;19912;-68
2022/12/04 05:47:36;;;;;;;;;;;9.60;99.90;;;;;;5114503;28;20371;-65
2022/12/04 05:50:02;;;;;;;;;;;9.70;99.90;;;;;;5115237;28;19912;-68
2022/12/04 05:52:28;;;;;;;;;;;9.90;99.90;;;;;;5115067;28;20381;-68
2022/12/04 05:54:53;;;;;;;;;;;10.00;99.90;;;;;;5096256;28;20368;-68
2022/12/04 05:57:19;;;;;;;;;;;10.20;99.90;;;;;;5114614;28;19946;-67
2022/12/04 05:59:45;;;;;;;;;;;10.40;99.90;;;;;;5114289;28;19915;-67
2022/12/04 06:02:18;;;;;;;;;;;10.50;99.90;;;;;;5096775;28;19930;-67
2022/12/04 06:04:44;;;;;;;;;;;10.50;99.90;;;;;;5114281;28;19920;-67
2022/12/04 06:07:09;;;;;;;;;;;10.70;99.90;;;;;;5114482;28;19931;-71
2022/12/04 06:09:35;;;;;;;;;;;10.60;99.90;;;;;;5113961;28;19912;-66
2022/12/04 06:12:04;;;;;;;;;;;10.70;99.90;;;;;;5117524;28;20060;-67
2022/12/04 06:14:33;;;;;;;;;;;10.70;99.90;;;;;;5103937;28;19908;-67
2022/12/04 06:16:59;;;;;;;;;;;10.60;99.90;;;;;;5113779;28;19947;-67
2022/12/04 06:19:25;;;;;;;;;;;10.60;99.90;;;;;;5109272;28;20497;-67
2022/12/04 06:21:51;;;;;;;;;;;10.50;99.90;;;;;;5094143;28;19908;-67
2022/12/04 06:24:21;;;;;;;;;;;10.50;99.90;;;;;;5093578;28;20061;-67
2022/12/04 06:26:47;;;;;;;;;;;10.50;99.90;;;;;;5093605;28;19908;-68
2022/12/04 06:29:13;;;;;;;;;;;10.40;99.90;;;;;;5091794;28;20010;-67
2022/12/04 06:31:39;;;;;;;;;;;10.40;99.90;;;;;;5110634;28;20012;-67
2022/12/04 06:34:05;;;;;;;;;;;10.40;99.90;;;;;;5112141;28;20381;-67
2022/12/04 06:36:31;;;;;;;;;;;10.30;99.90;;;;;;5108475;28;20007;-68
2022/12/04 06:38:57;;;;;;;;;;;10.30;99.90;;;;;;5110669;28;19912;-67
2022/12/04 06:41:23;;;;;;;;;;;10.30;99.90;;;;;;5111700;28;19911;-67
2022/12/04 06:43:50;;;;;;;;;;;10.30;99.90;;;;;;5101067;28;19945;-67
2022/12/04 06:46:23;;;;;;;;;;;10.30;99.90;;;;;;5099023;28;19912;-67
2022/12/04 06:48:49;;;;;;;;;;;10.30;99.90;;;;;;5100089;28;19915;-67
2022/12/04 06:51:16;;;;;;;;;;;10.20;99.90;;;;;;5095589;28;19916;-67
2022/12/04 06:53:42;;;;;;;;;;;10.20;99.90;;;;;;5098843;28;19908;-67
2022/12/04 06:56:09;;;;;;;;;;;10.20;99.90;;;;;;5095839;28;19916;-67
2022/12/04 06:58:35;;;;;;;;;;;10.30;99.90;;;;;;5105006;27;19920;-67
2022/12/04 07:01:05;;;;;;;;;;;10.20;99.90;;;;;;5101089;27;19912;-67
2022/12/04 07:03:31;;;;;;;;;;;10.10;99.90;;;;;;5104207;27;19916;-72
2022/12/04 07:05:56;;;;;;;;;;;10.00;99.90;;;;;;5106066;27;19916;-67
2022/12/04 07:08:22;;;;;;;;;;;9.90;99.90;;;;;;5108152;27;19948;-67
2022/12/04 07:10:48;;;;;;;;;;;9.90;99.90;;;;;;5106635;27;20327;-67
2022/12/04 07:13:16;;;;;;;;;;;9.90;99.90;;;;;;5104237;28;19973;-67
2022/12/04 07:15:42;;;;;;;;;;;9.90;99.90;;;;;;5103703;27;19912;-67
2022/12/04 07:18:08;;;;;;;;;;;9.90;99.90;;;;;;5105923;28;19923;-67
2022/12/04 07:20:34;;;;;;;;;;;9.70;99.90;;;;;;5089140;27;20382;-67
2022/12/04 07:23:00;;;;;;;;;;;9.60;99.90;;;;;;5103206;27;19912;-67
2022/12/04 07:25:28;;;;;;;;;;;9.50;99.90;;;;;;5103950;27;19916;-66
2022/12/04 07:27:54;;;;;;;;;;;9.50;99.90;;;;;;5105927;27;19981;-67
2022/12/04 07:30:19;;;;;;;;;;;9.50;99.90;;;;;;5104516;27;20371;-67
2022/12/04 07:32:48;;;;;;;;;;;9.60;99.90;;;;;;5120269;27;19927;-67
2022/12/04 07:35:16;;;;;;;;;;;9.70;99.90;;;;;;5090768;27;19911;-67
2022/12/04 07:37:42;;;;;;;;;;;9.70;99.90;;;;;;5107305;27;20566;-66
2022/12/04 07:40:08;;;;;;;;;;;9.80;99.90;;;;;;5105246;28;19915;-67
2022/12/04 07:42:33;;;;;;;;;;;9.90;99.90;;;;;;5104080;27;19912;-67
2022/12/04 07:44:59;;;;;;;;;;;9.90;99.90;;;;;;5110448;27;19916;-67
2022/12/04 07:47:28;;;;;;;;;;;10.00;99.90;;;;;;5115490;28;19985;-66
2022/12/04 07:49:54;;;;;;;;;;;10.10;99.90;;;;;;5080093;28;19922;-67
2022/12/04 07:52:19;;;;;;;;;;;10.20;99.90;;;;;;5100119;28;20289;-67
2022/12/04 07:54:45;;;;;;;;;;;10.30;99.90;;;;;;5116795;28;19908;-67
2022/12/04 07:57:11;;;;;;;;;;;10.40;99.90;;;;;;5098470;28;20370;-67
2022/12/04 07:59:39;;;;;;;;;;;10.50;99.90;;;;;;5110333;28;19962;-67
2022/12/04 08:02:05;;;;;;;;;;;10.60;99.90;;;;;;5097444;28;20313;-67
2022/12/04 08:04:31;;;;;;;;;;;10.60;99.90;;;;;;5117024;28;19916;-67
2022/12/04 08:06:57;;;;;;;;;;;10.70;99.90;;;;;;5116126;28;20385;-67
2022/12/04 08:09:22;;;;;;;;;;;10.70;99.90;;;;;;5109684;28;19916;-65
2022/12/04 08:11:48;;;;;;;;;;;10.70;99.90;;;;;;5108236;27;20525;-67
2022/12/04 08:14:14;;;;;;;;;;;10.70;99.90;;;;;;5109127;27;19973;-66
2022/12/04 08:16:39;;;;;;;;;;;10.70;99.90;;;;;;5113125;27;19947;-67
2022/12/04 08:19:05;;;;;;;;;;;10.70;99.90;;;;;;5110574;27;19915;-67
2022/12/04 08:21:31;;;;;;;;;;;10.70;99.90;;;;;;5095394;28;20013;-66
2022/12/04 08:23:57;;;;;;;;;;;10.60;99.90;;;;;;5095362;28;19909;-66
2022/12/04 08:26:24;;;;;;;;;;;10.60;99.90;;;;;;5094097;28;20326;-65
2022/12/04 08:28:52;;;;;;;;;;;10.70;99.90;;;;;;5094255;28;19912;-66
2022/12/04 08:31:22;;;;;;;;;;;10.70;99.90;;;;;;5099508;28;19908;-66
2022/12/04 08:33:48;;;;;;;;;;;10.60;99.90;;;;;;5107840;28;19908;-67
2022/12/04 08:36:15;;;;;;;;;;;10.60;99.90;;;;;;5094048;28;19908;-66
2022/12/04 08:38:41;;;;;;;;;;;10.70;99.90;;;;;;5093869;28;19915;-65
2022/12/04 08:41:07;;;;;;;;;;;10.70;99.90;;;;;;5093651;28;19908;-66
2022/12/04 08:43:33;;;;;;;;;;;10.80;99.90;;;;;;5098178;27;20003;-67
2022/12/04 08:46:00;;;;;;;;;;;10.80;99.90;;;;;;5099683;28;19919;-66
2022/12/04 08:48:26;;;;;;;;;;;10.80;99.90;;;;;;5101060;27;20412;-66
2022/12/04 08:50:52;;;;;;;;;;;10.80;99.90;;;;;;5099640;28;19916;-67
2022/12/04 08:53:17;;;;;;;;;;;10.90;99.90;;;;;;5100313;27;19916;-66
2022/12/04 08:55:43;;;;;;;;;;;10.90;99.90;;;;;;5101441;28;20024;-68
2022/12/04 08:58:09;;;;;;;;;;;11.00;99.90;;;;;;5104355;27;20539;-72
2022/12/04 09:00:35;;;;;;;;;;;11.10;99.90;;;;;;5100798;27;19930;-67
2022/12/04 09:03:00;;;;;;;;;;;11.20;99.90;;;;;;5106244;28;20010;-67
2022/12/04 09:05:28;;;;;;;;;;;11.30;99.90;;;;;;5105638;27;20264;-66
2022/12/04 09:07:53;;;;;;;;;;;11.40;99.90;;;;;;5103189;27;19916;-66
2022/12/04 09:10:19;;;;;;;;;;;11.50;99.90;;;;;;5101645;28;21166;-66
2022/12/04 09:12:44;;;;;;;;;;;11.50;99.90;;;;;;5114470;27;19919;-65
2022/12/04 09:15:10;;;;;;;;;;;11.40;99.90;;;;;;5098332;27;20236;-66
2022/12/04 09:17:36;;;;;;;;;;;11.40;99.90;;;;;;5101891;27;19912;-65
2022/12/04 09:20:05;;;;;;;;;;;11.40;99.90;;;;;;5097954;28;20402;-66
2022/12/04 09:22:32;;;;;;;;;;;11.40;99.90;;;;;;5098136;27;20004;-66
2022/12/04 09:24:58;;;;;;;;;;;11.50;99.90;;;;;;5100735;28;19919;-65
2022/12/04 09:27:23;;;;;;;;;;;11.50;99.90;;;;;;5102402;27;19964;-66
2022/12/04 09:29:49;;;;;;;;;;;11.60;99.90;;;;;;5100161;27;19927;-66
2022/12/04 09:32:14;;;;;;;;;;;11.50;99.90;;;;;;5101696;27;19998;-67
2022/12/04 09:34:40;;;;;;;;;;;11.50;99.90;;;;;;5102228;28;19923;-66
2022/12/04 09:37:06;;;;;;;;;;;11.60;99.90;;;;;;5111033;28;19918;-66
2022/12/04 09:39:31;;;;;;;;;;;11.70;99.90;;;;;;5087463;28;19916;-65
2022/12/04 09:42:23;;;;;;;;;;;11.80;99.90;;;;;;5111427;28;19973;-66
2022/12/04 09:44:52;;;;;;;;;;;11.90;99.90;;;;;;5084520;28;19955;-67
2022/12/04 09:47:25;;;;;;;;;;;12.10;99.90;;;;;;5111760;28;20334;-65
2022/12/04 09:49:54;;;;;;;;;;;12.30;99.90;;;;;;5104768;28;20393;-66
2022/12/04 09:52:26;;;;;;;;;;;12.50;99.90;;;;;;5106453;28;19920;-66
2022/12/04 09:54:52;;;;;;;;;;;12.50;99.90;;;;;;5105577;28;19998;-66
2022/12/04 09:57:24;;;;;;;;;;;12.50;99.90;;;;;;5099152;28;20011;-67
2022/12/04 09:59:50;;;;;;;;;;;12.50;99.90;;;;;;5099364;28;19926;-67
2022/12/04 10:02:34;;;;;;;;;;;12.60;99.90;;;;;;5095853;28;20455;-66
2022/12/04 10:05:00;;;;;;;;;;;12.70;99.90;;;;;;5102631;28;20329;-66
2022/12/04 10:07:41;;;;;;;;;;;12.60;99.90;;;;;;5112012;28;20014;-67
2022/12/04 10:10:15;;;;;;;;;;;12.50;99.90;;;;;;5108619;28;20010;-66
2022/12/04 10:12:53;;;;;;;;;;;12.60;99.90;;;;;;5104873;28;19934;-62
2022/12/04 10:15:33;;;;;;;;;;;12.50;99.90;;;;;;5108573;28;19962;-63
2022/12/04 10:18:05;;;;;;;;;;;12.40;99.90;;;;;;5110246;28;20332;-63
2022/12/04 10:20:49;;;;;;;;;;;12.20;99.90;;;;;;5113884;28;19908;-66
2022/12/04 10:23:33;;;;;;;;;;;12.10;99.90;;;;;;5113717;28;19914;-66
2022/12/04 10:26:00;;;;;;;;;;;12.10;99.90;;;;;;5102646;28;19916;-64
2022/12/04 10:28:40;;;;;;;;;;;12.20;99.90;;;;;;5114565;28;19908;-66
2022/12/04 10:31:09;;;;;;;;;;;12.20;99.90;;;;;;5112712;28;19907;-66
2022/12/04 10:33:41;;;;;;;;;;;12.30;99.90;;;;;;5108134;28;19920;-66
2022/12/04 10:36:12;;;;;;;;;;;12.30;99.90;;;;;;5116446;28;19912;-67
2022/12/04 10:38:43;;;;;;;;;;;12.20;99.90;;;;;;5124342;27;19919;-67
2022/12/04 10:41:28;;;;;;;;;;;12.30;99.90;;;;;;5108523;28;19940;-63
2022/12/04 10:43:54;;;;;;;;;;;12.30;99.90;;;;;;5109728;28;19922;-67
2022/12/04 10:46:30;;;;;;;;;;;12.30;99.90;;;;;;5108891;28;19912;-67
2022/12/04 10:49:00;;;;;;;;;;;12.30;99.90;;;;;;5109253;28;19916;-67
2022/12/04 10:51:27;;;;;;;;;;;12.10;99.90;;;;;;5114255;28;19923;-67
2022/12/04 10:53:54;;;;;;;;;;;11.90;99.90;;;;;;5116675;27;19962;-69
2022/12/04 10:56:21;;;;;;;;;;;11.70;99.90;;;;;;5113163;28;20075;-66
2022/12/04 10:58:56;;;;;;;;;;;11.70;99.90;;;;;;5110287;28;19919;-68
2022/12/04 11:01:22;;;;;;;;;;;11.70;99.90;;;;;;5095948;28;19912;-67
2022/12/04 11:03:54;;;;;;;;;;;11.70;99.90;;;;;;5115230;28;19972;-67
2022/12/04 11:06:22;;;;;;;;;;;11.80;99.90;;;;;;5115864;27;19939;-67
2022/12/04 11:08:49;;;;;;;;;;;11.80;99.90;;;;;;5111388;28;19927;-68
2022/12/04 11:11:21;;;;;;;;;;;11.80;99.90;;;;;;5113664;28;19950;-68
2022/12/04 11:13:46;;;;;;;;;;;11.80;99.90;;;;;;5113494;28;19912;-66
2022/12/04 11:16:31;;;;;;;;;;;11.80;99.90;;;;;;5096791;28;19951;-67
2022/12/04 11:18:56;;;;;;;;;;;11.90;99.90;;;;;;5096603;28;19912;-66
2022/12/04 11:21:24;;;;;;;;;;;11.80;99.90;;;;;;5112584;28;19919;-70
2022/12/04 11:23:51;;;;;;;;;;;11.60;99.90;;;;;;5109617;27;19993;-66
2022/12/04 11:26:30;;;;;;;;;;;11.60;99.90;;;;;;5108084;28;19918;-64
2022/12/04 11:28:57;;;;;;;;;;;11.40;99.90;;;;;;5111393;28;19995;-67
2022/12/04 11:31:23;;;;;;;;;;;11.30;99.90;;;;;;5107142;28;19919;-67
2022/12/04 11:33:51;;;;;;;;;;;11.20;99.90;;;;;;5095707;28;19911;-68
2022/12/04 11:36:16;;;;;;;;;;;11.30;99.90;;;;;;5102755;27;19958;-68
2022/12/04 11:38:42;;;;;;;;;;;11.30;99.90;;;;;;5100347;28;19912;-62
2022/12/04 11:41:20;;;;;;;;;;;11.20;99.90;;;;;;5113991;28;19915;-67
2022/12/04 11:43:47;;;;;;;;;;;11.20;99.90;;;;;;5111230;28;20309;-64
2022/12/04 11:46:20;;;;;;;;;;;11.20;99.90;;;;;;5109664;27;19937;-69
2022/12/04 11:48:46;;;;;;;;;;;11.00;99.90;;;;;;5110131;27;19980;-64
2022/12/04 11:51:14;;;;;;;;;;;11.00;99.90;;;;;;5103273;27;19912;-63
2022/12/04 11:53:54;;;;;;;;;;;11.00;99.90;;;;;;5120082;27;19939;-65
2022/12/04 11:56:39;;;;;;;;;;;11.00;99.90;;;;;;5108240;27;19959;-66
2022/12/04 11:59:13;;;;;;;;;;;11.00;99.90;;;;;;5112232;28;19951;-64
2022/12/04 12:01:49;;;;;;;;;;;11.00;99.90;;;;;;5111196;28;19915;-63
2022/12/04 12:04:33;;;;;;;;;;;10.90;99.90;;;;;;5112466;28;19972;-63
2022/12/04 12:07:19;;;;;;;;;;;10.90;99.90;;;;;;5107294;28;20377;-63
2022/12/04 12:09:52;;;;;;;;;;;11.00;99.90;;;;;;5104521;28;19912;-66
2022/12/04 12:12:18;;;;;;;;;;;11.00;99.90;;;;;;5112203;27;20020;-65
2022/12/04 12:14:59;;;;;;;;;;;11.10;99.90;;;;;;5113007;28;19920;-66
2022/12/04 12:17:29;;;;;;;;;;;11.10;99.90;;;;;;5108994;28;19919;-63
2022/12/04 12:20:06;;;;;;;;;;;11.10;99.90;;;;;;5114398;28;20290;-66
2022/12/04 12:22:32;;;;;;;;;;;11.10;99.90;;;;;;5110692;27;20012;-62
2022/12/04 12:25:17;;;;;;;;;;;11.00;99.90;;;;;;5105244;28;19947;-67
2022/12/04 12:28:01;;;;;;;;;;;11.00;99.90;;;;;;5102905;28;20318;-65
2022/12/04 12:30:31;;;;;;;;;;;10.80;99.90;;;;;;5113176;28;19916;-66
2022/12/04 12:33:03;;;;;;;;;;;10.70;99.90;;;;;;5113704;28;20027;-63
2022/12/04 12:35:30;;;;;;;;;;;10.60;99.90;;;;;;5108508;28;20006;-68
2022/12/04 12:38:00;;;;;;;;;;;10.50;99.90;;;;;;5109174;28;20294;-63
2022/12/04 12:40:25;;;;;;;;;;;10.60;99.90;;;;;;5110397;28;19912;-67
2022/12/04 12:42:54;;;;;;;;;;;10.60;99.90;;;;;;5106847;28;19912;-63
2022/12/04 12:45:37;;;;;;;;;;;10.60;99.90;;;;;;5101318;28;19919;-64
2022/12/04 12:48:10;;;;;;;;;;;10.60;99.90;;;;;;5124873;27;19912;-62
2022/12/04 12:50:46;;;;;;;;;;;10.60;99.90;;;;;;5109121;28;19931;-65
2022/12/04 12:53:15;;;;;;;;;;;10.50;99.90;;;;;;5109657;28;19908;-66
2022/12/04 12:55:54;;;;;;;;;;;10.50;99.90;;;;;;5104703;28;19922;-66
2022/12/04 12:58:26;;;;;;;;;;;10.40;99.90;;;;;;5110187;28;19911;-65
2022/12/04 13:00:54;;;;;;;;;;;10.20;99.90;;;;;;5110700;28;20342;-65
2022/12/04 13:03:37;;;;;;;;;;;10.10;99.90;;;;;;5110990;27;19912;-64
2022/12/04 13:06:05;;;;;;;;;;;9.90;99.90;;;;;;5110251;28;20242;-67
2022/12/04 13:08:46;;;;;;;;;;;9.90;99.90;;;;;;5110691;28;20302;-66
2022/12/04 13:11:17;;;;;;;;;;;9.90;99.90;;;;;;5088661;28;19997;-67
2022/12/04 13:13:46;;;;;;;;;;;9.90;99.90;;;;;;5109277;28;19919;-68
2022/12/04 13:16:20;;;;;;;;;;;10.10;99.90;;;;;;5108528;27;19951;-68
2022/12/04 13:18:51;;;;;;;;;;;10.20;99.90;;;;;;5095449;27;19912;-67
2022/12/04 13:21:29;;;;;;;;;;;10.20;99.90;;;;;;5106786;28;19935;-67
2022/12/04 13:24:04;;;;;;;;;;;10.20;99.90;;;;;;5108978;27;19914;-67
2022/12/04 13:26:32;;;;;;;;;;;10.20;99.90;;;;;;5111791;28;19956;-68
2022/12/04 13:29:10;;;;;;;;;;;10.00;99.90;;;;;;5109869;27;19930;-65
2022/12/04 13:31:45;;;;;;;;;;;10.00;99.90;;;;;;5111174;28;19920;-65
2022/12/04 13:34:29;;;;;;;;;;;10.00;99.90;;;;;;5107918;28;19919;-64
2022/12/04 13:37:16;;;;;;;;;;;10.00;99.90;;;;;;5105856;28;19931;-66
2022/12/04 13:39:45;;;;;;;;;;;10.00;99.90;;;;;;5098698;28;19999;-68
2022/12/04 13:42:21;;;;;;;;;;;10.10;99.90;;;;;;5104003;28;20434;-65
2022/12/04 13:45:05;;;;;;;;;;;10.10;99.90;;;;;;5105031;28;20363;-63
2022/12/04 13:47:32;;;;;;;;;;;10.10;99.90;;;;;;5105298;28;19989;-66
2022/12/04 13:50:20;;;;;;;;;;;10.10;99.90;;;;;;5091720;28;19923;-63
2022/12/04 13:52:48;;;;;;;;;;;10.20;99.90;;;;;;5104594;28;19911;-61
2022/12/04 13:55:29;;;;;;;;;;;10.20;99.90;;;;;;5112930;28;19908;-61
2022/12/04 13:57:56;;;;;;;;;;;10.30;99.90;;;;;;5110153;28;19916;-64
2022/12/04 14:00:27;;;;;;;;;;;10.30;99.90;;;;;;5110276;28;19908;-63
2022/12/04 14:02:54;;;;;;;;;;;10.40;99.90;;;;;;5106805;28;20295;-61
2022/12/04 14:05:46;;;;;;;;;;;10.40;99.90;;;;;;5111155;28;19916;-64
2022/12/04 14:08:17;;;;;;;;;;;10.50;99.90;;;;;;5091458;28;19918;-67
2022/12/04 14:10:44;;;;;;;;;;;10.60;99.90;;;;;;5099953;28;20081;-66
2022/12/04 14:13:22;;;;;;;;;;;10.70;99.90;;;;;;5116081;28;19923;-70
2022/12/04 14:15:48;;;;;;;;;;;10.70;99.90;;;;;;5109099;28;19919;-64
2022/12/04 14:18:25;;;;;;;;;;;10.70;99.90;;;;;;5119450;27;19911;-68
2022/12/04 14:20:57;;;;;;;;;;;10.70;99.90;;;;;;5110147;28;19989;-67
2022/12/04 14:23:26;;;;;;;;;;;10.50;99.90;;;;;;5116430;28;20319;-67
2022/12/04 14:25:58;;;;;;;;;;;10.40;99.90;;;;;;5112782;28;20006;-67
2022/12/04 14:28:23;;;;;;;;;;;10.40;99.90;;;;;;5115564;28;19912;-67
2022/12/04 14:31:07;;;;;;;;;;;10.40;99.90;;;;;;5111112;27;20349;-69
2022/12/04 14:33:37;;;;;;;;;;;10.40;99.90;;;;;;5109407;28;19918;-66
2022/12/04 14:36:03;;;;;;;;;;;10.40;99.90;;;;;;5114239;28;19915;-65
2022/12/04 14:38:28;;;;;;;;;;;10.30;99.90;;;;;;5104403;28;19920;-65
2022/12/04 14:40:57;;;;;;;;;;;10.40;99.90;;;;;;5109478;28;20290;-67
2022/12/04 14:43:26;;;;;;;;;;;10.40;99.90;;;;;;5109783;28;19988;-68
2022/12/04 14:46:01;;;;;;;;;;;10.40;99.90;;;;;;5107092;28;20276;-68
2022/12/04 14:48:34;;;;;;;;;;;10.50;99.90;;;;;;5103738;28;19913;-69
2022/12/04 14:51:00;;;;;;;;;;;10.60;99.90;;;;;;5110266;28;19957;-67